SUL6893 SBSJ-SBBR
Flight info
| Callsign | SUL6893 |
|---|---|
| Flight time | 1h 14m |
| Altitude | 35000 |
| Route | GERKA DCT ISMOB DCT BIXAN DCT KEXIT DCT KOMLU DCT SAMGA DCT VULPA DCT AZOIC |
| Aircraft | B738/M-SDFGIKLORWX/LB1 |
Departure
| Time | 2026-04-24 22:32 |
|---|---|
| Airport | Professor Urbano Ernesto Stumpf Airport (SBSJ) |
Arrival
| Time | 2026-04-24 23:47 |
|---|---|
| Airport | Presidente Juscelino Kubitschek International Airport (SBBR) |
| Time | Latitude | Longitude | Altitude | Speed | Heading |
|---|---|---|---|---|---|
| 2026-04-24 21:56 | -23.22565 | -45.86228 | 2064 ft | 0 kts | 46° |
| 2026-04-24 22:21 | -23.22566 | -45.86228 | 2064 ft | 1 kts | 46° |
| 2026-04-24 22:22 | -23.22575 | -45.86238 | 2064 ft | 4 kts | 46° |
| 2026-04-24 22:22 | -23.22586 | -45.86260 | 2064 ft | 4 kts | 102° |
| 2026-04-24 22:22 | -23.22574 | -45.86282 | 2064 ft | 3 kts | 135° |
| 2026-04-24 22:22 | -23.22569 | -45.86288 | 2064 ft | 0 kts | 135° |
| 2026-04-24 22:26 | -23.22570 | -45.86287 | 2064 ft | 1 kts | 135° |
| 2026-04-24 22:26 | -23.22585 | -45.86271 | 2064 ft | 5 kts | 135° |
| 2026-04-24 22:27 | -23.22620 | -45.86232 | 2064 ft | 9 kts | 135° |
| 2026-04-24 22:27 | -23.22674 | -45.86173 | 2064 ft | 13 kts | 135° |
| 2026-04-24 22:27 | -23.22746 | -45.86094 | 2064 ft | 16 kts | 135° |
| 2026-04-24 22:27 | -23.22833 | -45.85999 | 2064 ft | 19 kts | 135° |
| 2026-04-24 22:28 | -23.22928 | -45.85898 | 2064 ft | 19 kts | 135° |
| 2026-04-24 22:28 | -23.23022 | -45.85798 | 2064 ft | 19 kts | 134° |
| 2026-04-24 22:28 | -23.23111 | -45.85699 | 2064 ft | 18 kts | 134° |
| 2026-04-24 22:28 | -23.23197 | -45.85605 | 2064 ft | 17 kts | 135° |
| 2026-04-24 22:29 | -23.23361 | -45.85426 | 2065 ft | 16 kts | 135° |
| 2026-04-24 22:29 | -23.23438 | -45.85341 | 2066 ft | 15 kts | 135° |
| 2026-04-24 22:29 | -23.23519 | -45.85269 | 2069 ft | 15 kts | 145° |
| 2026-04-24 22:30 | -23.23603 | -45.85206 | 2068 ft | 14 kts | 145° |
| 2026-04-24 22:30 | -23.23683 | -45.85145 | 2069 ft | 14 kts | 144° |
| 2026-04-24 22:30 | -23.23760 | -45.85086 | 2069 ft | 13 kts | 146° |
| 2026-04-24 22:30 | -23.23840 | -45.85097 | 2070 ft | 13 kts | 232° |
| 2026-04-24 22:31 | -23.23820 | -45.85182 | 2069 ft | 13 kts | 311° |
| 2026-04-24 22:31 | -23.23757 | -45.85253 | 2068 ft | 14 kts | 315° |
| 2026-04-24 22:31 | -23.23562 | -45.85464 | 2058 ft | 79 kts | 315° |
| 2026-04-24 22:31 | -23.22963 | -45.86112 | 2053 ft | 160 kts | 315° |
| 2026-04-24 22:32 | -23.22103 | -45.87069 | 2671 ft | 177 kts | 314° |
| 2026-04-24 22:32 | -23.21230 | -45.88042 | 3694 ft | 181 kts | 315° |
| 2026-04-24 22:32 | -23.20290 | -45.89069 | 4388 ft | 206 kts | 316° |
| 2026-04-24 22:32 | -23.19184 | -45.90250 | 4574 ft | 241 kts | 315° |
| 2026-04-24 22:33 | -23.17999 | -45.91640 | 5065 ft | 257 kts | 311° |
| 2026-04-24 22:33 | -23.17611 | -45.92124 | 5167 ft | 266 kts | 310° |
| 2026-04-24 22:34 | -23.10237 | -46.01563 | 9883 ft | 303 kts | 310° |
| 2026-04-24 22:34 | -23.08859 | -46.03286 | 10750 ft | 307 kts | 310° |
| 2026-04-24 22:35 | -23.07418 | -46.05090 | 11066 ft | 327 kts | 310° |
| 2026-04-24 22:35 | -23.05874 | -46.07032 | 11114 ft | 353 kts | 310° |
| 2026-04-24 22:35 | -23.04212 | -46.09124 | 11124 ft | 377 kts | 310° |
| 2026-04-24 22:35 | -23.02451 | -46.11330 | 11236 ft | 392 kts | 312° |
| 2026-04-24 22:36 | -23.00484 | -46.13336 | 12200 ft | 382 kts | 319° |
| 2026-04-24 22:36 | -22.98440 | -46.15138 | 13203 ft | 373 kts | 320° |
| 2026-04-24 22:36 | -22.96432 | -46.16869 | 14158 ft | 365 kts | 320° |
| 2026-04-24 22:36 | -22.94442 | -46.18583 | 14824 ft | 364 kts | 320° |
| 2026-04-24 22:37 | -22.92456 | -46.20306 | 15341 ft | 368 kts | 320° |
| 2026-04-24 22:37 | -22.90446 | -46.22061 | 15821 ft | 371 kts | 320° |
| 2026-04-24 22:37 | -22.88432 | -46.23828 | 16301 ft | 374 kts | 320° |
| 2026-04-24 22:37 | -22.86408 | -46.25610 | 16801 ft | 376 kts | 320° |
| 2026-04-24 22:38 | -22.84395 | -46.27385 | 17285 ft | 378 kts | 320° |
| 2026-04-24 22:38 | -22.82350 | -46.29191 | 17750 ft | 380 kts | 320° |
| 2026-04-24 22:38 | -22.80291 | -46.31009 | 18200 ft | 383 kts | 320° |
| 2026-04-24 22:38 | -22.78221 | -46.32838 | 18589 ft | 385 kts | 320° |
| 2026-04-24 22:39 | -22.76141 | -46.34674 | 18920 ft | 387 kts | 320° |
| 2026-04-24 22:39 | -22.74047 | -46.36523 | 19251 ft | 390 kts | 320° |
| 2026-04-24 22:39 | -22.71934 | -46.38387 | 19573 ft | 392 kts | 320° |
| 2026-04-24 22:39 | -22.69812 | -46.40257 | 19910 ft | 394 kts | 319° |
| 2026-04-24 22:40 | -22.68401 | -46.41501 | 20112 ft | 395 kts | 319° |
| 2026-04-24 22:40 | -22.66262 | -46.43386 | 20412 ft | 398 kts | 319° |
| 2026-04-24 22:40 | -22.64106 | -46.45285 | 20721 ft | 400 kts | 319° |
| 2026-04-24 22:40 | -22.61945 | -46.47188 | 21017 ft | 402 kts | 319° |
| 2026-04-24 22:41 | -22.59769 | -46.49103 | 21297 ft | 404 kts | 319° |
| 2026-04-24 22:41 | -22.57576 | -46.51032 | 21571 ft | 406 kts | 319° |
| 2026-04-24 22:41 | -22.55374 | -46.52968 | 21803 ft | 409 kts | 319° |
| 2026-04-24 22:41 | -22.53161 | -46.54914 | 22054 ft | 411 kts | 319° |
| 2026-04-24 22:42 | -22.50936 | -46.56869 | 22316 ft | 412 kts | 319° |
| 2026-04-24 22:42 | -22.48730 | -46.58806 | 22568 ft | 413 kts | 319° |
| 2026-04-24 22:42 | -22.46493 | -46.60768 | 22824 ft | 415 kts | 319° |
| 2026-04-24 22:42 | -22.44246 | -46.62740 | 23040 ft | 417 kts | 319° |
| 2026-04-24 22:43 | -22.41991 | -46.64718 | 23259 ft | 419 kts | 319° |
| 2026-04-24 22:43 | -22.39726 | -46.66704 | 23454 ft | 420 kts | 319° |
| 2026-04-24 22:43 | -22.37442 | -46.68706 | 23631 ft | 423 kts | 319° |
| 2026-04-24 22:43 | -22.35154 | -46.70710 | 23796 ft | 424 kts | 319° |
| 2026-04-24 22:44 | -22.32857 | -46.72721 | 23971 ft | 425 kts | 319° |
| 2026-04-24 22:44 | -22.30559 | -46.74731 | 24151 ft | 426 kts | 319° |
| 2026-04-24 22:44 | -22.28255 | -46.76747 | 24327 ft | 426 kts | 319° |
| 2026-04-24 22:44 | -22.25976 | -46.78739 | 24486 ft | 427 kts | 319° |
| 2026-04-24 22:45 | -22.23654 | -46.80769 | 24643 ft | 428 kts | 319° |
| 2026-04-24 22:45 | -22.21342 | -46.82789 | 24786 ft | 429 kts | 319° |
| 2026-04-24 22:45 | -22.19016 | -46.84820 | 24902 ft | 431 kts | 319° |
| 2026-04-24 22:45 | -22.16679 | -46.86860 | 25024 ft | 433 kts | 319° |
| 2026-04-24 22:46 | -22.14336 | -46.88904 | 25173 ft | 433 kts | 319° |
| 2026-04-24 22:46 | -22.11982 | -46.90957 | 25324 ft | 434 kts | 319° |
| 2026-04-24 22:46 | -22.09637 | -46.93001 | 25462 ft | 434 kts | 319° |
| 2026-04-24 22:46 | -22.07282 | -46.95054 | 25587 ft | 435 kts | 319° |
| 2026-04-24 22:47 | -22.04921 | -46.97109 | 25717 ft | 436 kts | 319° |
| 2026-04-24 22:47 | -22.02554 | -46.99170 | 25830 ft | 437 kts | 319° |
| 2026-04-24 22:47 | -22.00186 | -47.01231 | 25944 ft | 438 kts | 319° |
| 2026-04-24 22:47 | -21.97841 | -47.03271 | 26049 ft | 439 kts | 319° |
| 2026-04-24 22:48 | -21.95462 | -47.05340 | 26161 ft | 439 kts | 319° |
| 2026-04-24 22:48 | -21.93082 | -47.07408 | 26274 ft | 440 kts | 319° |
| 2026-04-24 22:48 | -21.90699 | -47.09479 | 26382 ft | 441 kts | 319° |
| 2026-04-24 22:48 | -21.88310 | -47.11553 | 26486 ft | 441 kts | 319° |
| 2026-04-24 22:49 | -21.85910 | -47.13637 | 26568 ft | 442 kts | 319° |
| 2026-04-24 22:49 | -21.83542 | -47.15691 | 26665 ft | 443 kts | 319° |
| 2026-04-24 22:49 | -21.81035 | -47.17698 | 26740 ft | 446 kts | 326° |
| 2026-04-24 22:49 | -21.78257 | -47.19201 | 26792 ft | 450 kts | 336° |
| 2026-04-24 22:50 | -21.75299 | -47.20219 | 26895 ft | 453 kts | 345° |
| 2026-04-24 22:50 | -21.72178 | -47.20743 | 26975 ft | 455 kts | 351° |
| 2026-04-24 22:50 | -21.69025 | -47.21127 | 27052 ft | 456 kts | 351° |
| 2026-04-24 22:50 | -21.65868 | -47.21491 | 27123 ft | 457 kts | 351° |
| 2026-04-24 22:51 | -21.62704 | -47.21864 | 27193 ft | 457 kts | 351° |
| 2026-04-24 22:51 | -21.59539 | -47.22255 | 27266 ft | 458 kts | 351° |
| 2026-04-24 22:51 | -21.56376 | -47.22660 | 27344 ft | 459 kts | 351° |
| 2026-04-24 22:51 | -21.53180 | -47.23079 | 27594 ft | 463 kts | 351° |
| 2026-04-24 22:52 | -21.49984 | -47.23500 | 28003 ft | 464 kts | 350° |
| 2026-04-24 22:52 | -21.46778 | -47.23923 | 28398 ft | 465 kts | 350° |
| 2026-04-24 22:52 | -21.43560 | -47.24346 | 28726 ft | 467 kts | 350° |
| 2026-04-24 22:52 | -21.40323 | -47.24771 | 29022 ft | 470 kts | 350° |
| 2026-04-24 22:53 | -21.37060 | -47.25199 | 29325 ft | 473 kts | 350° |
| 2026-04-24 22:53 | -21.33831 | -47.25642 | 29626 ft | 475 kts | 349° |
| 2026-04-24 22:53 | -21.30563 | -47.26165 | 29928 ft | 477 kts | 348° |
| 2026-04-24 22:53 | -21.27275 | -47.26729 | 30221 ft | 479 kts | 348° |
| 2026-04-24 22:54 | -21.23991 | -47.27303 | 30572 ft | 478 kts | 348° |
| 2026-04-24 22:54 | -21.20708 | -47.27872 | 30981 ft | 476 kts | 348° |
| 2026-04-24 22:54 | -21.17439 | -47.28431 | 31402 ft | 475 kts | 348° |
| 2026-04-24 22:54 | -21.14168 | -47.28983 | 31792 ft | 474 kts | 348° |
| 2026-04-24 22:55 | -21.10903 | -47.29530 | 32160 ft | 475 kts | 348° |
| 2026-04-24 22:55 | -21.07638 | -47.30074 | 32566 ft | 474 kts | 348° |
| 2026-04-24 22:55 | -21.04424 | -47.30609 | 32996 ft | 473 kts | 348° |
| 2026-04-24 22:55 | -21.01175 | -47.31149 | 33455 ft | 471 kts | 349° |
| 2026-04-24 22:56 | -20.97939 | -47.31687 | 33894 ft | 471 kts | 349° |
| 2026-04-24 22:56 | -20.94698 | -47.32226 | 34292 ft | 470 kts | 349° |
| 2026-04-24 22:56 | -20.91471 | -47.32763 | 34684 ft | 469 kts | 349° |
| 2026-04-24 22:56 | -20.88251 | -47.33298 | 35050 ft | 468 kts | 349° |
| 2026-04-24 22:57 | -20.81784 | -47.34374 | 35076 ft | 471 kts | 349° |
| 2026-04-24 22:57 | -20.75352 | -47.35440 | 35071 ft | 465 kts | 349° |
| 2026-04-24 22:58 | -20.68952 | -47.36503 | 35095 ft | 466 kts | 349° |
| 2026-04-24 22:58 | -20.62581 | -47.37559 | 35087 ft | 467 kts | 349° |
| 2026-04-24 22:59 | -20.56157 | -47.38612 | 35083 ft | 467 kts | 349° |
| 2026-04-24 23:00 | -20.46481 | -47.40064 | 35080 ft | 468 kts | 350° |
| 2026-04-24 23:00 | -20.40028 | -47.41023 | 35077 ft | 468 kts | 350° |
| 2026-04-24 23:01 | -20.33578 | -47.41990 | 35081 ft | 468 kts | 350° |
| 2026-04-24 23:01 | -20.27138 | -47.42959 | 35077 ft | 468 kts | 350° |
| 2026-04-24 23:02 | -20.20692 | -47.43928 | 35072 ft | 467 kts | 350° |
| 2026-04-24 23:02 | -20.14241 | -47.44897 | 35074 ft | 467 kts | 350° |
| 2026-04-24 23:03 | -20.07803 | -47.45863 | 35077 ft | 467 kts | 350° |
| 2026-04-24 23:03 | -20.01407 | -47.46821 | 35080 ft | 467 kts | 350° |
| 2026-04-24 23:04 | -19.94968 | -47.47786 | 35073 ft | 467 kts | 350° |
| 2026-04-24 23:04 | -19.88524 | -47.48750 | 35077 ft | 468 kts | 350° |
| 2026-04-24 23:05 | -19.82075 | -47.49715 | 35081 ft | 468 kts | 350° |
| 2026-04-24 23:05 | -19.75615 | -47.50680 | 35089 ft | 468 kts | 350° |
| 2026-04-24 23:06 | -19.69161 | -47.51632 | 35088 ft | 468 kts | 351° |
| 2026-04-24 23:06 | -19.62700 | -47.52573 | 35089 ft | 468 kts | 351° |
| 2026-04-24 23:07 | -19.56239 | -47.53516 | 35092 ft | 468 kts | 351° |
| 2026-04-24 23:07 | -19.49779 | -47.54459 | 35088 ft | 468 kts | 351° |
| 2026-04-24 23:08 | -19.43364 | -47.55395 | 35091 ft | 468 kts | 351° |
| 2026-04-24 23:08 | -19.36905 | -47.56338 | 35088 ft | 468 kts | 351° |
| 2026-04-24 23:09 | -19.30453 | -47.57278 | 35086 ft | 468 kts | 351° |
| 2026-04-24 23:09 | -19.24005 | -47.58217 | 35088 ft | 468 kts | 351° |
| 2026-04-24 23:10 | -19.17560 | -47.59155 | 35088 ft | 467 kts | 351° |
| 2026-04-24 23:10 | -19.11106 | -47.60093 | 35086 ft | 467 kts | 351° |
| 2026-04-24 23:11 | -19.04667 | -47.61029 | 35087 ft | 467 kts | 351° |
| 2026-04-24 23:11 | -18.98221 | -47.61946 | 35082 ft | 467 kts | 351° |
| 2026-04-24 23:12 | -18.91806 | -47.62833 | 35085 ft | 467 kts | 351° |
| 2026-04-24 23:12 | -18.85355 | -47.63725 | 35085 ft | 468 kts | 351° |
| 2026-04-24 23:13 | -18.78885 | -47.64623 | 35083 ft | 468 kts | 351° |
| 2026-04-24 23:13 | -18.72416 | -47.65521 | 35075 ft | 468 kts | 352° |
| 2026-04-24 23:14 | -18.65954 | -47.66418 | 35073 ft | 468 kts | 352° |
| 2026-04-24 23:14 | -18.59489 | -47.67316 | 35073 ft | 468 kts | 352° |
| 2026-04-24 23:15 | -18.53083 | -47.68250 | 35065 ft | 468 kts | 351° |
| 2026-04-24 23:15 | -18.46626 | -47.69207 | 35067 ft | 468 kts | 352° |
| 2026-04-24 23:16 | -18.40169 | -47.70156 | 35065 ft | 468 kts | 352° |
| 2026-04-24 23:16 | -18.33711 | -47.71101 | 35063 ft | 468 kts | 352° |
| 2026-04-24 23:17 | -18.27284 | -47.72164 | 35060 ft | 468 kts | 348° |
| 2026-04-24 23:17 | -18.20943 | -47.73723 | 35059 ft | 467 kts | 346° |
| 2026-04-24 23:18 | -18.14625 | -47.75364 | 35060 ft | 468 kts | 346° |
| 2026-04-24 23:18 | -18.08289 | -47.76951 | 35064 ft | 468 kts | 346° |
| 2026-04-24 23:19 | -18.01986 | -47.78487 | 35068 ft | 468 kts | 347° |
| 2026-04-24 23:19 | -17.95646 | -47.80019 | 35064 ft | 467 kts | 347° |
| 2026-04-24 23:20 | -17.89301 | -47.81551 | 35061 ft | 467 kts | 347° |
| 2026-04-24 23:20 | -17.82960 | -47.83083 | 35066 ft | 466 kts | 347° |
| 2026-04-24 23:20 | -17.79825 | -47.83841 | 34618 ft | 470 kts | 347° |
| 2026-04-24 23:21 | -17.76609 | -47.84618 | 34022 ft | 466 kts | 347° |
| 2026-04-24 23:21 | -17.73504 | -47.85368 | 33383 ft | 463 kts | 347° |
| 2026-04-24 23:21 | -17.70387 | -47.86121 | 32917 ft | 456 kts | 347° |
| 2026-04-24 23:21 | -17.67316 | -47.86863 | 32443 ft | 450 kts | 347° |
| 2026-04-24 23:22 | -17.64284 | -47.87595 | 31982 ft | 444 kts | 347° |
| 2026-04-24 23:22 | -17.61286 | -47.88318 | 31526 ft | 439 kts | 347° |
| 2026-04-24 23:22 | -17.58323 | -47.89032 | 31079 ft | 434 kts | 347° |
| 2026-04-24 23:22 | -17.55394 | -47.89738 | 30631 ft | 430 kts | 348° |
| 2026-04-24 23:23 | -17.52488 | -47.90438 | 30188 ft | 427 kts | 348° |
| 2026-04-24 23:23 | -17.49606 | -47.91132 | 29668 ft | 423 kts | 348° |
| 2026-04-24 23:23 | -17.46757 | -47.91818 | 29193 ft | 418 kts | 348° |
| 2026-04-24 23:23 | -17.43934 | -47.92498 | 28731 ft | 413 kts | 348° |
| 2026-04-24 23:24 | -17.41142 | -47.93170 | 28272 ft | 409 kts | 348° |
| 2026-04-24 23:24 | -17.38381 | -47.93834 | 27838 ft | 406 kts | 348° |
| 2026-04-24 23:24 | -17.35616 | -47.94498 | 27414 ft | 414 kts | 347° |
| 2026-04-24 23:24 | -17.32770 | -47.95182 | 26965 ft | 422 kts | 347° |
| 2026-04-24 23:25 | -17.29915 | -47.95868 | 26499 ft | 418 kts | 348° |
| 2026-04-24 23:25 | -17.27139 | -47.96535 | 26049 ft | 412 kts | 348° |
| 2026-04-24 23:25 | -17.24359 | -47.97203 | 25592 ft | 407 kts | 348° |
| 2026-04-24 23:25 | -17.21617 | -47.97862 | 25146 ft | 402 kts | 347° |
| 2026-04-24 23:26 | -17.18910 | -47.98512 | 24693 ft | 398 kts | 347° |
| 2026-04-24 23:26 | -17.16226 | -47.99156 | 24247 ft | 394 kts | 347° |
| 2026-04-24 23:26 | -17.13566 | -47.99794 | 23816 ft | 390 kts | 347° |
| 2026-04-24 23:26 | -17.10935 | -48.00425 | 23336 ft | 386 kts | 347° |
| 2026-04-24 23:27 | -17.08330 | -48.01049 | 22867 ft | 382 kts | 347° |
| 2026-04-24 23:27 | -17.05759 | -48.01666 | 22432 ft | 377 kts | 348° |
| 2026-04-24 23:27 | -17.03214 | -48.02276 | 22009 ft | 372 kts | 348° |
| 2026-04-24 23:27 | -17.01548 | -48.02675 | 21733 ft | 369 kts | 348° |
| 2026-04-24 23:28 | -16.98256 | -48.03463 | 21186 ft | 363 kts | 348° |
| 2026-04-24 23:28 | -16.95803 | -48.04051 | 20782 ft | 360 kts | 348° |
| 2026-04-24 23:28 | -16.93374 | -48.04632 | 20386 ft | 358 kts | 348° |
| 2026-04-24 23:28 | -16.91732 | -48.05025 | 20117 ft | 358 kts | 348° |
| 2026-04-24 23:29 | -16.89329 | -48.05599 | 19707 ft | 359 kts | 348° |
| 2026-04-24 23:29 | -16.86866 | -48.06188 | 19276 ft | 367 kts | 348° |
| 2026-04-24 23:29 | -16.84357 | -48.06788 | 18848 ft | 369 kts | 348° |
| 2026-04-24 23:29 | -16.81864 | -48.07385 | 18415 ft | 366 kts | 348° |
| 2026-04-24 23:30 | -16.79395 | -48.07975 | 17946 ft | 362 kts | 347° |
| 2026-04-24 23:30 | -16.76959 | -48.08555 | 17511 ft | 357 kts | 348° |
| 2026-04-24 23:30 | -16.74546 | -48.09111 | 17077 ft | 352 kts | 348° |
| 2026-04-24 23:30 | -16.72163 | -48.09649 | 16661 ft | 348 kts | 348° |
| 2026-04-24 23:31 | -16.69809 | -48.10178 | 16257 ft | 344 kts | 348° |
| 2026-04-24 23:31 | -16.67481 | -48.10701 | 15861 ft | 340 kts | 348° |
| 2026-04-24 23:31 | -16.65178 | -48.11220 | 15473 ft | 337 kts | 348° |
| 2026-04-24 23:31 | -16.62925 | -48.11728 | 15082 ft | 334 kts | 348° |
| 2026-04-24 23:32 | -16.60655 | -48.12241 | 14690 ft | 331 kts | 347° |
| 2026-04-24 23:32 | -16.58409 | -48.12748 | 14297 ft | 329 kts | 347° |
| 2026-04-24 23:32 | -16.56176 | -48.13253 | 13912 ft | 327 kts | 347° |
| 2026-04-24 23:32 | -16.53950 | -48.13756 | 13490 ft | 325 kts | 347° |
| 2026-04-24 23:33 | -16.51753 | -48.14253 | 13096 ft | 321 kts | 347° |
| 2026-04-24 23:33 | -16.49582 | -48.14744 | 12715 ft | 318 kts | 347° |
| 2026-04-24 23:33 | -16.47457 | -48.15224 | 12342 ft | 315 kts | 347° |
| 2026-04-24 23:33 | -16.45329 | -48.15705 | 11982 ft | 313 kts | 347° |
| 2026-04-24 23:34 | -16.43191 | -48.16172 | 11602 ft | 316 kts | 351° |
| 2026-04-24 23:34 | -16.40988 | -48.16323 | 11383 ft | 320 kts | 359° |
| 2026-04-24 23:34 | -16.38743 | -48.16298 | 11148 ft | 325 kts | 1° |
| 2026-04-24 23:34 | -16.36477 | -48.16235 | 10909 ft | 325 kts | 1° |
| 2026-04-24 23:35 | -16.34220 | -48.16175 | 10678 ft | 322 kts | 1° |
| 2026-04-24 23:35 | -16.31981 | -48.16127 | 10439 ft | 320 kts | 0° |
| 2026-04-24 23:35 | -16.29765 | -48.16092 | 10207 ft | 317 kts | 0° |
| 2026-04-24 23:35 | -16.27563 | -48.16065 | 9976 ft | 315 kts | 0° |
| 2026-04-24 23:36 | -16.25406 | -48.16044 | 9707 ft | 302 kts | 0° |
| 2026-04-24 23:36 | -16.23362 | -48.16026 | 9437 ft | 285 kts | 0° |
| 2026-04-24 23:36 | -16.21426 | -48.16012 | 9175 ft | 273 kts | 0° |
| 2026-04-24 23:36 | -16.19535 | -48.15999 | 8924 ft | 270 kts | 0° |
| 2026-04-24 23:37 | -16.17605 | -48.15986 | 8704 ft | 288 kts | 0° |
| 2026-04-24 23:37 | -16.15570 | -48.15972 | 8461 ft | 292 kts | 0° |
| 2026-04-24 23:37 | -16.11596 | -48.15946 | 7968 ft | 278 kts | 1° |
| 2026-04-24 23:38 | -16.09708 | -48.15934 | 7732 ft | 271 kts | 1° |
| 2026-04-24 23:38 | -16.07837 | -48.15922 | 7495 ft | 268 kts | 1° |
| 2026-04-24 23:38 | -16.05980 | -48.15910 | 7259 ft | 267 kts | 1° |
| 2026-04-24 23:38 | -16.04108 | -48.15898 | 7035 ft | 271 kts | 1° |
| 2026-04-24 23:39 | -16.02228 | -48.15886 | 6860 ft | 266 kts | 1° |
| 2026-04-24 23:39 | -16.00458 | -48.15876 | 6748 ft | 243 kts | 2° |
| 2026-04-24 23:39 | -15.98835 | -48.15866 | 6602 ft | 224 kts | 2° |
| 2026-04-24 23:39 | -15.97322 | -48.15856 | 6486 ft | 217 kts | 2° |
| 2026-04-24 23:40 | -15.95807 | -48.15846 | 6451 ft | 216 kts | 2° |
| 2026-04-24 23:40 | -15.94313 | -48.15836 | 6443 ft | 214 kts | 2° |
| 2026-04-24 23:40 | -15.92820 | -48.15826 | 6439 ft | 214 kts | 2° |
| 2026-04-24 23:40 | -15.91356 | -48.15817 | 6457 ft | 205 kts | 2° |
| 2026-04-24 23:41 | -15.89964 | -48.15804 | 6444 ft | 194 kts | 5° |
| 2026-04-24 23:41 | -15.88746 | -48.15359 | 6446 ft | 184 kts | 40° |
| 2026-04-24 23:41 | -15.87941 | -48.14349 | 6458 ft | 183 kts | 66° |
| 2026-04-24 23:41 | -15.87649 | -48.13070 | 6469 ft | 183 kts | 86° |
| 2026-04-24 23:42 | -15.87561 | -48.11738 | 6463 ft | 186 kts | 87° |
| 2026-04-24 23:42 | -15.87479 | -48.10398 | 6382 ft | 184 kts | 87° |
| 2026-04-24 23:42 | -15.87400 | -48.09092 | 6291 ft | 177 kts | 88° |
| 2026-04-24 23:42 | -15.87327 | -48.07872 | 6227 ft | 167 kts | 87° |
| 2026-04-24 23:43 | -15.87253 | -48.06698 | 6023 ft | 157 kts | 87° |
| 2026-04-24 23:43 | -15.87182 | -48.05581 | 5853 ft | 157 kts | 87° |
| 2026-04-24 23:43 | -15.87109 | -48.04461 | 5647 ft | 154 kts | 87° |
| 2026-04-24 23:43 | -15.87038 | -48.03368 | 5453 ft | 149 kts | 87° |
| 2026-04-24 23:44 | -15.86969 | -48.02292 | 5280 ft | 150 kts | 88° |
| 2026-04-24 23:44 | -15.86900 | -48.01216 | 5093 ft | 149 kts | 88° |
| 2026-04-24 23:44 | -15.86832 | -48.00160 | 4907 ft | 145 kts | 86° |
| 2026-04-24 23:44 | -15.86765 | -47.99122 | 4720 ft | 143 kts | 86° |
| 2026-04-24 23:45 | -15.86698 | -47.98085 | 4536 ft | 146 kts | 86° |
| 2026-04-24 23:45 | -15.86630 | -47.97021 | 4342 ft | 148 kts | 86° |
| 2026-04-24 23:45 | -15.86568 | -47.95955 | 4182 ft | 148 kts | 86° |
| 2026-04-24 23:45 | -15.86499 | -47.94877 | 3965 ft | 150 kts | 86° |
| 2026-04-24 23:46 | -15.86424 | -47.93824 | 3749 ft | 146 kts | 86° |
| 2026-04-24 23:46 | -15.86359 | -47.92772 | 3528 ft | 146 kts | 85° |
| 2026-04-24 23:46 | -15.86293 | -47.91763 | 3462 ft | 124 kts | 86° |
| 2026-04-24 23:46 | -15.86249 | -47.91066 | 3473 ft | 62 kts | 86° |
| 2026-04-24 23:47 | -15.86297 | -47.90803 | 3480 ft | 33 kts | 131° |
| 2026-04-24 23:47 | -15.86366 | -47.90724 | 3481 ft | 10 kts | 137° |
| 2026-04-24 23:47 | -15.86419 | -47.90736 | 3479 ft | 10 kts | 248° |
| 2026-04-24 23:47 | -15.86426 | -47.90813 | 3482 ft | 12 kts | 266° |
| 2026-04-24 23:48 | -15.86433 | -47.90910 | 3476 ft | 15 kts | 266° |
| 2026-04-24 23:48 | -15.86441 | -47.91037 | 3471 ft | 19 kts | 265° |
| 2026-04-24 23:48 | -15.86450 | -47.91185 | 3468 ft | 21 kts | 266° |
| 2026-04-24 23:48 | -15.86459 | -47.91332 | 3467 ft | 20 kts | 266° |
| 2026-04-24 23:49 | -15.86468 | -47.91479 | 3464 ft | 21 kts | 266° |
| 2026-04-24 23:49 | -15.86478 | -47.91630 | 3464 ft | 21 kts | 266° |
| 2026-04-24 23:49 | -15.86487 | -47.91778 | 3467 ft | 20 kts | 266° |
| 2026-04-24 23:49 | -15.86496 | -47.91921 | 3468 ft | 20 kts | 266° |
| 2026-04-24 23:50 | -15.86505 | -47.92060 | 3467 ft | 19 kts | 266° |
| 2026-04-24 23:50 | -15.86514 | -47.92194 | 3468 ft | 18 kts | 266° |
| 2026-04-24 23:50 | -15.86522 | -47.92323 | 3468 ft | 18 kts | 265° |
| 2026-04-24 23:50 | -15.86590 | -47.92419 | 3470 ft | 17 kts | 210° |
| 2026-04-24 23:51 | -15.86693 | -47.92476 | 3470 ft | 16 kts | 208° |
| 2026-04-24 23:51 | -15.86782 | -47.92532 | 3469 ft | 15 kts | 229° |
| 2026-04-24 23:51 | -15.86798 | -47.92621 | 3467 ft | 8 kts | 267° |
| 2026-04-24 23:51 | -15.86823 | -47.92662 | 3467 ft | 7 kts | 198° |
| 2026-04-24 23:52 | -15.86844 | -47.92661 | 3467 ft | 0 kts | 148° |
| 2026-04-24 23:52 | -15.86849 | -47.92657 | 3466 ft | 1 kts | 140° |
| 2026-04-24 23:52 | -15.86858 | -47.92654 | 3466 ft | 0 kts | 174° |